createdAt,value
2023-04-09T00:02:15.014Z,6.30
2023-04-09T00:04:41.885Z,6.30
2023-04-09T00:07:08.700Z,6.30
2023-04-09T00:09:36.010Z,6.30
2023-04-09T00:12:03.467Z,6.20
2023-04-09T00:14:30.433Z,6.20
2023-04-09T00:16:57.159Z,6.20
2023-04-09T00:19:23.928Z,6.10
2023-04-09T00:21:51.012Z,6.20
2023-04-09T00:24:17.859Z,6.20
2023-04-09T00:26:45.018Z,6.20
2023-04-09T00:29:11.779Z,6.20
2023-04-09T00:31:38.751Z,6.00
2023-04-09T00:34:05.921Z,6.20
2023-04-09T00:36:33.014Z,6.20
2023-04-09T00:38:59.812Z,6.20
2023-04-09T00:41:26.923Z,6.20
2023-04-09T00:43:55.854Z,6.30
2023-04-09T00:46:22.601Z,6.20
2023-04-09T00:48:49.510Z,6.20
2023-04-09T00:51:16.510Z,6.20
2023-04-09T00:53:44.061Z,6.20
2023-04-09T00:56:11.757Z,6.10
2023-04-09T00:58:39.915Z,6.10
2023-04-09T01:01:06.822Z,6.20
2023-04-09T01:03:34.035Z,6.20
2023-04-09T01:06:18.153Z,6.10
2023-04-09T01:09:06.114Z,6.20
2023-04-09T01:11:36.013Z,6.10
2023-04-09T01:14:26.487Z,6.10
2023-04-09T01:16:55.917Z,6.10
2023-04-09T01:19:44.036Z,6.10
2023-04-09T01:22:54.307Z,6.10
2023-04-09T01:25:48.195Z,6.10
2023-04-09T01:28:16.614Z,6.10
2023-04-09T01:30:47.422Z,6.10
2023-04-09T01:33:15.088Z,6.10
2023-04-09T01:35:46.357Z,6.00
2023-04-09T01:38:14.071Z,6.10
2023-04-09T01:40:41.006Z,6.00
2023-04-09T01:43:08.149Z,6.00
2023-04-09T01:45:34.976Z,6.00
2023-04-09T01:48:01.782Z,6.00
2023-04-09T01:50:28.666Z,6.00
2023-04-09T01:52:55.463Z,6.00
2023-04-09T01:55:22.254Z,6.00
2023-04-09T01:57:49.023Z,6.10
2023-04-09T02:00:16.403Z,6.00
2023-04-09T02:03:03.252Z,6.00
2023-04-09T02:05:31.451Z,6.00
2023-04-09T02:08:00.574Z,6.00
2023-04-09T02:10:27.729Z,6.00
2023-04-09T02:12:54.708Z,6.00
2023-04-09T02:15:21.508Z,6.00
2023-04-09T02:17:48.750Z,6.00
2023-04-09T02:20:18.989Z,6.00
2023-04-09T02:22:48.796Z,6.00
2023-04-09T02:25:15.666Z,5.90
2023-04-09T02:27:42.588Z,6.00
2023-04-09T02:30:09.670Z,6.00
2023-04-09T02:32:36.854Z,5.90
2023-04-09T02:35:03.863Z,5.90
2023-04-09T02:37:30.914Z,5.90
2023-04-09T02:39:57.611Z,5.80
2023-04-09T02:42:24.345Z,5.80
2023-04-09T02:44:51.216Z,5.80
2023-04-09T02:47:18.072Z,5.80
2023-04-09T02:49:44.944Z,5.80
2023-04-09T02:52:11.896Z,5.80
2023-04-09T02:54:38.864Z,5.80
2023-04-09T02:57:05.705Z,5.90
2023-04-09T02:59:33.768Z,5.80
2023-04-09T03:02:00.724Z,5.80
2023-04-09T03:04:27.470Z,5.80
2023-04-09T03:06:54.237Z,5.90
2023-04-09T03:09:21.221Z,5.90
2023-04-09T03:11:47.890Z,5.90
2023-04-09T03:14:14.788Z,5.80
2023-04-09T03:16:41.636Z,5.90
2023-04-09T03:19:08.739Z,5.90
2023-04-09T03:21:35.543Z,5.80
2023-04-09T03:24:02.562Z,6.00
2023-04-09T03:26:29.855Z,5.80
2023-04-09T03:28:57.051Z,5.80
2023-04-09T03:31:23.846Z,5.80
2023-04-09T03:33:51.343Z,5.80
2023-04-09T03:36:18.144Z,5.80
2023-04-09T03:38:45.210Z,5.80
2023-04-09T03:41:11.992Z,5.80
2023-04-09T03:43:38.826Z,5.70
2023-04-09T03:46:15.478Z,5.80
2023-04-09T03:48:42.440Z,5.70
2023-04-09T03:51:13.284Z,5.70
2023-04-09T03:53:40.899Z,5.70
2023-04-09T03:56:08.299Z,5.80
2023-04-09T03:58:35.199Z,5.70
2023-04-09T04:01:02.284Z,5.80
2023-04-09T04:03:29.271Z,5.70
2023-04-09T04:06:02.177Z,5.70
2023-04-09T04:08:29.211Z,5.70
2023-04-09T04:10:56.239Z,5.60
2023-04-09T04:13:23.034Z,5.60
2023-04-09T04:15:50.232Z,5.70
2023-04-09T04:18:17.031Z,5.70
2023-04-09T04:20:43.776Z,5.60
2023-04-09T04:23:10.660Z,5.60
2023-04-09T04:25:37.368Z,5.60
2023-04-09T04:28:04.200Z,5.60
2023-04-09T04:30:30.959Z,5.60
2023-04-09T04:32:57.806Z,5.60
2023-04-09T04:35:24.679Z,5.60
2023-04-09T04:37:51.638Z,5.60
2023-04-09T04:40:18.371Z,5.60
2023-04-09T04:42:45.414Z,5.60
2023-04-09T04:45:12.168Z,5.50
2023-04-09T04:47:38.971Z,5.50
2023-04-09T04:50:07.219Z,5.50
2023-04-09T04:52:34.128Z,5.50
2023-04-09T04:55:00.876Z,5.40
2023-04-09T04:57:27.610Z,5.50
2023-04-09T04:59:54.413Z,5.40
2023-04-09T05:02:21.347Z,5.40
2023-04-09T05:04:48.203Z,5.40
2023-04-09T05:07:14.981Z,5.40
2023-04-09T05:09:42.966Z,5.40
2023-04-09T05:12:09.767Z,5.40
2023-04-09T05:14:36.508Z,5.40
2023-04-09T05:17:03.344Z,5.40
2023-04-09T05:19:30.133Z,5.50
2023-04-09T05:21:56.852Z,5.40
2023-04-09T05:24:23.962Z,5.40
2023-04-09T05:26:50.767Z,5.40
2023-04-09T05:29:17.988Z,5.40
2023-04-09T05:31:44.743Z,5.50
2023-04-09T05:34:11.560Z,5.50
2023-04-09T05:36:38.332Z,5.50
2023-04-09T05:39:05.138Z,5.60
2023-04-09T05:41:33.607Z,5.60
2023-04-09T05:44:00.990Z,5.60
2023-04-09T05:46:29.082Z,5.60
2023-04-09T05:48:55.986Z,5.70
2023-04-09T05:51:22.780Z,5.60
2023-04-09T05:53:49.963Z,5.70
2023-04-09T05:56:17.104Z,5.70
2023-04-09T05:58:44.042Z,5.60
2023-04-09T06:01:11.310Z,5.70
2023-04-09T06:03:38.202Z,5.70
2023-04-09T06:06:05.223Z,5.70
2023-04-09T06:08:31.986Z,5.80
2023-04-09T06:10:58.884Z,5.80
2023-04-09T06:13:26.212Z,5.80
2023-04-09T06:15:53.028Z,5.80
2023-04-09T06:18:19.908Z,5.90
2023-04-09T06:20:46.788Z,5.90
2023-04-09T06:23:13.784Z,5.90
2023-04-09T06:25:40.608Z,5.90
2023-04-09T06:28:07.632Z,5.90
2023-04-09T06:30:36.945Z,5.90
2023-04-09T06:33:03.950Z,5.90
2023-04-09T06:35:31.067Z,6.00
2023-04-09T06:37:57.792Z,6.00
2023-04-09T06:40:24.506Z,6.00
2023-04-09T06:42:51.455Z,6.00
2023-04-09T06:45:18.275Z,6.00
2023-04-09T06:47:45.045Z,5.90
2023-04-09T06:50:11.968Z,6.00
2023-04-09T06:52:38.817Z,6.00
2023-04-09T06:55:06.336Z,6.10
2023-04-09T06:57:33.127Z,6.00
2023-04-09T07:00:00.297Z,6.00
2023-04-09T07:02:28.013Z,6.00
2023-04-09T07:04:55.102Z,6.00
2023-04-09T07:07:23.252Z,6.00
2023-04-09T07:09:52.556Z,6.10
2023-04-09T07:12:29.306Z,6.10
2023-04-09T07:15:03.058Z,6.10
2023-04-09T07:17:30.956Z,6.10
2023-04-09T07:19:57.738Z,6.20
2023-04-09T07:22:26.748Z,6.20
2023-04-09T07:24:54.937Z,6.20
2023-04-09T07:27:22.057Z,6.30
2023-04-09T07:29:48.834Z,6.50
2023-04-09T07:32:16.447Z,6.40
2023-04-09T07:34:44.011Z,6.40
2023-04-09T07:37:12.568Z,6.50
2023-04-09T07:39:39.434Z,6.50
2023-04-09T07:42:06.500Z,6.60
2023-04-09T07:44:39.696Z,6.50
2023-04-09T07:47:07.640Z,6.50
2023-04-09T07:49:36.681Z,6.50
2023-04-09T07:52:03.885Z,6.50
2023-04-09T07:54:33.772Z,6.50
2023-04-09T07:57:01.694Z,6.50
2023-04-09T07:59:29.638Z,6.50
2023-04-09T08:01:56.532Z,6.50
2023-04-09T08:04:23.473Z,6.60
2023-04-09T08:06:51.272Z,6.60
2023-04-09T08:09:18.649Z,6.60
2023-04-09T08:11:45.974Z,6.60
2023-04-09T08:14:13.164Z,6.60
2023-04-09T08:16:41.645Z,6.80
2023-04-09T08:19:09.109Z,6.80
2023-04-09T08:21:40.296Z,6.80
2023-04-09T08:24:07.599Z,6.90
2023-04-09T08:26:34.365Z,6.90
2023-04-09T08:29:01.174Z,6.90
2023-04-09T08:31:27.975Z,7.00
2023-04-09T08:33:54.834Z,7.20
2023-04-09T08:36:22.129Z,7.10
2023-04-09T08:38:49.275Z,7.10
2023-04-09T08:41:24.703Z,7.10
2023-04-09T08:43:58.273Z,7.20
2023-04-09T08:46:26.581Z,7.20
2023-04-09T08:48:53.941Z,7.30
2023-04-09T08:51:22.034Z,7.30
2023-04-09T08:53:52.741Z,7.40
2023-04-09T08:56:21.067Z,7.50
2023-04-09T08:58:47.853Z,7.50
2023-04-09T09:01:28.084Z,7.60
2023-04-09T09:03:58.781Z,7.60
2023-04-09T09:06:30.110Z,7.60
2023-04-09T09:09:11.041Z,7.70
2023-04-09T09:11:45.931Z,7.70
2023-04-09T09:14:17.131Z,7.70
2023-04-09T09:17:03.817Z,7.70
2023-04-09T09:19:33.523Z,7.70
2023-04-09T09:22:08.478Z,7.80
2023-04-09T09:24:36.188Z,7.80
2023-04-09T09:27:03.074Z,7.70
2023-04-09T09:29:30.171Z,7.80
2023-04-09T09:31:56.963Z,8.00
2023-04-09T09:34:24.371Z,7.90
2023-04-09T09:36:51.127Z,8.00
2023-04-09T09:39:18.441Z,8.00
2023-04-09T09:41:46.027Z,8.00
2023-04-09T09:44:30.474Z,8.10
2023-04-09T09:46:57.576Z,8.10
2023-04-09T09:49:24.465Z,8.10
2023-04-09T09:51:51.566Z,8.20
2023-04-09T09:54:18.573Z,8.10
2023-04-09T09:56:45.356Z,8.10
2023-04-09T09:59:23.380Z,8.10
2023-04-09T10:02:01.416Z,8.10
2023-04-09T10:04:29.740Z,8.20
2023-04-09T10:06:56.825Z,8.20
2023-04-09T10:09:24.120Z,8.10
2023-04-09T10:11:50.948Z,8.20
2023-04-09T10:14:17.696Z,8.20
2023-04-09T10:16:44.521Z,8.20
2023-04-09T10:19:14.287Z,8.30
2023-04-09T10:22:04.344Z,8.30
2023-04-09T10:24:31.743Z,8.40
2023-04-09T10:27:09.941Z,8.40
2023-04-09T10:29:36.824Z,8.40
2023-04-09T10:32:06.230Z,8.40
2023-04-09T10:34:38.570Z,8.40
2023-04-09T10:37:06.889Z,8.50
2023-04-09T10:39:33.729Z,8.50
2023-04-09T10:42:02.419Z,8.50
2023-04-09T10:44:32.591Z,8.60
2023-04-09T10:46:59.744Z,8.50
2023-04-09T10:49:27.345Z,8.50
2023-04-09T10:52:01.252Z,8.60
2023-04-09T10:54:34.340Z,8.50
2023-04-09T10:57:07.337Z,8.60
2023-04-09T10:59:35.374Z,8.70
2023-04-09T11:02:02.528Z,8.70
2023-04-09T11:05:01.584Z,8.70
2023-04-09T11:07:29.577Z,8.70
2023-04-09T11:09:56.615Z,8.70
2023-04-09T11:12:23.396Z,8.80
2023-04-09T11:14:50.682Z,8.80
2023-04-09T11:17:17.497Z,8.90
2023-04-09T11:19:44.896Z,8.80
2023-04-09T11:22:11.692Z,8.90
2023-04-09T11:24:46.639Z,8.90
2023-04-09T11:27:13.597Z,8.90
2023-04-09T11:29:40.532Z,8.90
2023-04-09T11:32:07.430Z,8.90
2023-04-09T11:34:34.217Z,9.00
2023-04-09T11:37:07.079Z,9.00
2023-04-09T11:39:37.273Z,9.10
2023-04-09T11:42:04.125Z,9.10
2023-04-09T11:44:31.118Z,9.10
2023-04-09T11:46:59.184Z,9.20
2023-04-09T11:49:26.013Z,9.20
2023-04-09T11:51:53.306Z,9.20
2023-04-09T11:54:20.082Z,9.20
2023-04-09T11:56:47.164Z,9.20
2023-04-09T11:59:14.843Z,9.30
2023-04-09T12:01:41.917Z,9.20
2023-04-09T12:04:09.524Z,9.30
2023-04-09T12:06:40.726Z,9.30
2023-04-09T12:09:08.904Z,9.30
2023-04-09T12:11:37.174Z,9.30
2023-04-09T12:14:04.785Z,9.30
2023-04-09T12:16:32.722Z,9.30
2023-04-09T12:19:03.730Z,9.30
2023-04-09T12:21:50.388Z,9.30
2023-04-09T12:24:18.483Z,9.30
2023-04-09T12:26:47.992Z,9.30
2023-04-09T12:29:15.863Z,9.40
2023-04-09T12:31:43.079Z,9.40
2023-04-09T12:34:12.217Z,9.30
2023-04-09T12:36:41.878Z,9.30
2023-04-09T12:39:11.759Z,9.30
2023-04-09T12:41:38.497Z,9.30
2023-04-09T12:44:05.311Z,9.40
2023-04-09T12:46:32.506Z,9.40
2023-04-09T12:48:59.546Z,9.40
2023-04-09T12:51:26.312Z,9.40
2023-04-09T12:53:53.362Z,9.30
2023-04-09T12:56:20.404Z,9.30
2023-04-09T12:58:47.231Z,9.30
2023-04-09T13:01:14.296Z,9.30
2023-04-09T13:03:41.623Z,9.40
2023-04-09T13:06:08.854Z,9.20
2023-04-09T13:08:35.859Z,9.20
2023-04-09T13:11:02.857Z,9.20
2023-04-09T13:13:29.806Z,9.20
2023-04-09T13:15:57.256Z,9.20
2023-04-09T13:18:23.946Z,9.10
2023-04-09T13:20:50.846Z,9.10
2023-04-09T13:23:17.670Z,9.10
2023-04-09T13:25:44.466Z,9.10
2023-04-09T13:28:11.518Z,9.20
2023-04-09T13:30:38.277Z,9.20
2023-04-09T13:33:05.125Z,9.20
2023-04-09T13:35:32.246Z,9.20
2023-04-09T13:37:59.144Z,9.20
2023-04-09T13:40:25.994Z,9.10
2023-04-09T13:42:52.772Z,9.10
2023-04-09T13:45:21.028Z,9.10
2023-04-09T13:47:48.108Z,9.20
2023-04-09T13:50:14.935Z,9.20
2023-04-09T13:52:42.026Z,9.20
2023-04-09T13:55:09.700Z,9.20
2023-04-09T13:57:36.822Z,9.20
2023-04-09T14:00:05.562Z,9.20
2023-04-09T14:02:32.850Z,9.10
2023-04-09T14:05:00.186Z,9.20
2023-04-09T14:07:26.969Z,9.10
2023-04-09T14:09:53.726Z,9.20
2023-04-09T14:12:20.478Z,9.20
2023-04-09T14:14:47.337Z,9.20
2023-04-09T14:17:14.088Z,9.20
2023-04-09T14:19:41.185Z,9.20
2023-04-09T14:22:08.931Z,9.20
2023-04-09T14:24:39.936Z,9.20
2023-04-09T14:27:07.792Z,9.20
2023-04-09T14:29:34.976Z,9.20
2023-04-09T14:32:01.770Z,9.20
2023-04-09T14:34:32.312Z,9.20
2023-04-09T14:36:59.135Z,9.20
2023-04-09T14:39:25.975Z,9.20
2023-04-09T14:41:52.815Z,9.20
2023-04-09T14:44:19.608Z,9.20
2023-04-09T14:46:46.459Z,9.20
2023-04-09T14:49:13.266Z,9.00
2023-04-09T14:51:40.349Z,8.90
2023-04-09T14:54:07.388Z,8.90
2023-04-09T14:56:35.152Z,8.90
2023-04-09T14:59:01.940Z,9.00
2023-04-09T15:01:28.782Z,9.00
2023-04-09T15:03:56.029Z,9.10
2023-04-09T15:06:23.094Z,9.10
2023-04-09T15:08:49.880Z,9.20
2023-04-09T15:11:17.484Z,9.30
2023-04-09T15:13:44.464Z,9.20
2023-04-09T15:16:11.803Z,9.20
2023-04-09T15:18:38.556Z,9.20
2023-04-09T15:21:05.840Z,9.10
2023-04-09T15:23:32.651Z,9.10
2023-04-09T15:25:59.541Z,9.10
2023-04-09T15:28:26.497Z,9.20
2023-04-09T15:30:54.864Z,9.20
2023-04-09T15:33:21.586Z,9.20
2023-04-09T15:35:48.503Z,9.20
2023-04-09T15:38:15.506Z,9.00
2023-04-09T15:40:42.734Z,8.90
2023-04-09T15:43:09.514Z,8.70
2023-04-09T15:45:36.294Z,8.60
2023-04-09T15:48:03.165Z,8.40
2023-04-09T15:50:29.952Z,8.50
2023-04-09T15:52:56.702Z,8.60
2023-04-09T15:55:23.622Z,8.70
2023-04-09T15:57:50.398Z,8.70
2023-04-09T16:00:17.265Z,8.70
2023-04-09T16:02:44.314Z,8.60
2023-04-09T16:05:11.200Z,8.70
2023-04-09T16:07:39.697Z,8.80
2023-04-09T16:10:07.668Z,8.80
2023-04-09T16:12:34.377Z,8.90
2023-04-09T16:15:01.743Z,8.90
2023-04-09T16:17:28.621Z,8.90
2023-04-09T16:19:55.404Z,8.80
2023-04-09T16:22:23.062Z,8.80
2023-04-09T16:24:50.221Z,8.80
2023-04-09T16:27:17.076Z,8.80
2023-04-09T16:29:44.011Z,8.70
2023-04-09T16:32:11.014Z,8.80
2023-04-09T16:34:37.781Z,8.70
2023-04-09T16:37:04.578Z,8.70
2023-04-09T16:39:31.693Z,8.80
2023-04-09T16:41:58.500Z,8.80
2023-04-09T16:44:25.738Z,8.80
2023-04-09T16:46:52.511Z,8.80
2023-04-09T16:49:19.474Z,8.90
2023-04-09T16:51:46.271Z,8.90
2023-04-09T16:54:13.455Z,8.90
2023-04-09T16:56:40.165Z,9.00
2023-04-09T16:59:06.955Z,9.10
2023-04-09T17:01:34.956Z,9.10
2023-04-09T17:04:03.198Z,9.10
2023-04-09T17:06:30.250Z,9.10
2023-04-09T17:08:57.476Z,9.20
2023-04-09T17:11:24.313Z,9.20
2023-04-09T17:13:51.018Z,9.20
2023-04-09T17:16:18.450Z,9.10
2023-04-09T17:18:45.430Z,9.10
2023-04-09T17:21:12.635Z,9.00
2023-04-09T17:23:39.563Z,9.10
2023-04-09T17:26:06.706Z,9.00
2023-04-09T17:28:33.945Z,9.00
2023-04-09T17:31:01.565Z,8.90
2023-04-09T17:33:28.434Z,8.90
2023-04-09T17:35:57.251Z,8.80
2023-04-09T17:38:25.221Z,8.80
2023-04-09T17:40:52.376Z,8.70
2023-04-09T17:43:19.089Z,8.70
2023-04-09T17:45:46.065Z,8.60
2023-04-09T17:48:12.994Z,8.60
2023-04-09T17:50:40.059Z,8.60
2023-04-09T17:53:07.587Z,8.60
2023-04-09T17:55:34.469Z,8.50
2023-04-09T17:58:01.511Z,8.50
2023-04-09T18:00:28.466Z,8.50
2023-04-09T18:02:57.397Z,8.40
2023-04-09T18:05:24.754Z,8.50
2023-04-09T18:07:52.184Z,8.40
2023-04-09T18:10:20.736Z,8.40
2023-04-09T18:12:47.500Z,8.30
2023-04-09T18:15:15.212Z,8.20
2023-04-09T18:17:42.068Z,8.20
2023-04-09T18:20:09.617Z,8.10
2023-04-09T18:22:36.430Z,8.10
2023-04-09T18:25:03.644Z,8.10
2023-04-09T18:27:30.773Z,8.10
2023-04-09T18:29:57.579Z,8.10
2023-04-09T18:32:25.372Z,8.20
2023-04-09T18:34:52.275Z,8.20
2023-04-09T18:37:21.599Z,8.20
2023-04-09T18:39:48.769Z,8.20
2023-04-09T18:42:15.564Z,8.10
2023-04-09T18:44:42.634Z,8.10
2023-04-09T18:47:10.546Z,8.00
2023-04-09T18:49:37.489Z,7.90
2023-04-09T18:52:06.248Z,7.90
2023-04-09T18:54:37.234Z,7.80
2023-04-09T18:57:04.245Z,7.70
2023-04-09T18:59:33.470Z,7.70
2023-04-09T19:02:06.419Z,7.60
2023-04-09T19:04:39.822Z,7.60
2023-04-09T19:07:07.200Z,7.60
2023-04-09T19:09:34.502Z,7.50
2023-04-09T19:12:02.078Z,7.50
2023-04-09T19:14:28.957Z,7.40
2023-04-09T19:16:55.826Z,7.30
2023-04-09T19:19:23.371Z,7.20
2023-04-09T19:21:50.116Z,7.30
2023-04-09T19:24:16.859Z,7.30
2023-04-09T19:26:43.976Z,7.30
2023-04-09T19:29:10.864Z,7.30
2023-04-09T19:31:37.665Z,7.40
2023-04-09T19:34:06.036Z,7.20
2023-04-09T19:36:34.046Z,7.10
2023-04-09T19:39:01.212Z,7.10
2023-04-09T19:41:27.990Z,7.00
2023-04-09T19:43:54.819Z,7.00
2023-04-09T19:46:21.796Z,7.00
2023-04-09T19:48:48.763Z,7.00
2023-04-09T19:51:19.958Z,7.00
2023-04-09T19:53:48.057Z,7.00
2023-04-09T19:56:15.692Z,7.00
2023-04-09T19:58:43.644Z,7.00
2023-04-09T20:01:10.583Z,7.00
2023-04-09T20:03:37.459Z,6.90
2023-04-09T20:06:10.983Z,6.90
2023-04-09T20:08:41.272Z,6.90
2023-04-09T20:11:08.049Z,7.10
2023-04-09T20:13:34.858Z,6.90
2023-04-09T20:16:01.742Z,6.90
2023-04-09T20:18:28.848Z,6.90
2023-04-09T20:20:55.964Z,6.90
2023-04-09T20:23:22.840Z,6.90
2023-04-09T20:25:54.065Z,6.90
2023-04-09T20:28:21.080Z,6.80
2023-04-09T20:30:47.900Z,6.90
2023-04-09T20:33:14.748Z,6.90
2023-04-09T20:35:41.550Z,6.90
2023-04-09T20:38:09.004Z,6.90
2023-04-09T20:40:36.956Z,6.90
2023-04-09T20:43:04.134Z,6.90
2023-04-09T20:45:31.338Z,7.00
2023-04-09T20:47:58.121Z,6.80
2023-04-09T20:50:24.960Z,6.80
2023-04-09T20:52:52.041Z,6.80
2023-04-09T20:55:19.067Z,6.80
2023-04-09T20:57:45.861Z,6.80
2023-04-09T21:00:13.132Z,6.80
2023-04-09T21:02:40.641Z,6.80
2023-04-09T21:05:19.555Z,6.80
2023-04-09T21:07:48.761Z,6.80
2023-04-09T21:10:15.650Z,6.80
2023-04-09T21:12:42.503Z,6.80
2023-04-09T21:15:09.784Z,6.80
2023-04-09T21:17:36.530Z,6.80
2023-04-09T21:20:04.554Z,6.80
2023-04-09T21:22:32.050Z,6.80
2023-04-09T21:24:58.798Z,6.80
2023-04-09T21:27:25.572Z,6.80
2023-04-09T21:29:53.712Z,6.80
2023-04-09T21:32:20.600Z,6.70
2023-04-09T21:34:47.360Z,6.80
2023-04-09T21:37:14.116Z,6.80
2023-04-09T21:39:41.134Z,6.70
2023-04-09T21:42:08.831Z,6.80
2023-04-09T21:44:36.145Z,6.80
2023-04-09T21:47:07.524Z,6.80
2023-04-09T21:49:39.145Z,6.80
2023-04-09T21:52:14.510Z,6.80
2023-04-09T21:54:42.429Z,6.80
2023-04-09T21:57:09.614Z,6.80
2023-04-09T21:59:36.460Z,6.80
2023-04-09T22:02:06.779Z,6.80
2023-04-09T22:04:35.260Z,6.80
2023-04-09T22:07:02.546Z,6.80
2023-04-09T22:09:29.306Z,6.80
2023-04-09T22:11:57.339Z,6.80
2023-04-09T22:14:24.126Z,6.80
2023-04-09T22:16:51.050Z,6.80
2023-04-09T22:19:17.928Z,6.80
2023-04-09T22:21:44.713Z,6.80
2023-04-09T22:24:11.943Z,6.80
2023-04-09T22:26:40.891Z,6.80
2023-04-09T22:29:08.405Z,6.80
2023-04-09T22:31:35.228Z,6.70
2023-04-09T22:34:13.379Z,6.80
2023-04-09T22:36:46.901Z,6.70
2023-04-09T22:39:13.597Z,6.70
2023-04-09T22:41:40.560Z,6.70
2023-04-09T22:44:09.412Z,6.80
2023-04-09T22:46:36.666Z,6.70
2023-04-09T22:49:05.323Z,6.70
2023-04-09T22:51:35.047Z,6.70
2023-04-09T22:54:02.103Z,6.70
2023-04-09T22:56:30.236Z,6.60
2023-04-09T22:58:57.006Z,6.60
2023-04-09T23:01:23.781Z,6.60
2023-04-09T23:03:50.930Z,6.60
2023-04-09T23:06:17.752Z,6.50
2023-04-09T23:08:44.984Z,6.50
2023-04-09T23:11:11.802Z,6.50
2023-04-09T23:13:39.056Z,6.50
2023-04-09T23:16:07.010Z,6.50
2023-04-09T23:18:34.807Z,6.60
2023-04-09T23:21:06.125Z,6.60
2023-04-09T23:23:33.659Z,6.50
2023-04-09T23:26:00.924Z,6.50
2023-04-09T23:28:28.115Z,6.50
2023-04-09T23:30:55.406Z,6.50
2023-04-09T23:33:22.945Z,6.50
2023-04-09T23:35:49.934Z,6.60
2023-04-09T23:38:17.076Z,6.60
2023-04-09T23:40:43.841Z,6.60
2023-04-09T23:43:11.041Z,6.50
2023-04-09T23:45:37.829Z,6.50
2023-04-09T23:48:06.073Z,6.50
2023-04-09T23:50:33.016Z,6.50
2023-04-09T23:53:03.434Z,6.40
2023-04-09T23:55:30.449Z,6.40
2023-04-09T23:57:57.488Z,6.40
